Time;durP1;ratioP1;P1;durP2;ratioP2;P2;SDS_P1;SDS_P2;PMS_P1;PMS_P2;Temp;Humidity;BMP_temperature;BMP_pressure;BME280_temperature;BME280_humidity;BME280_pressure;Samples;Min_cycle;Max_cycle;Signal;HPM_P1;HPM_P2
2023/05/09 00:01:30;;;;;;;8.98;5.07;;;;;;;9.75;60.37;101884.03;5062385;28;20754;-79
2023/05/09 00:04:01;;;;;;;4.93;4.20;;;;;;;9.71;60.43;101890.81;5072318;28;20234;-78
2023/05/09 00:06:31;;;;;;;6.65;5.53;;;;;;;9.77;60.34;101875.78;5073152;28;20233;-78
2023/05/09 00:09:01;;;;;;;6.68;5.55;;;;;;;9.65;60.98;101886.09;5072861;28;20198;-78
2023/05/09 00:11:30;;;;;;;8.23;4.60;;;;;;;9.65;61.13;101883.41;5064020;28;20176;-78
2023/05/09 00:14:00;;;;;;;5.03;4.28;;;;;;;9.53;61.79;101882.09;5061932;28;20203;-81
2023/05/09 00:16:31;;;;;;;7.57;5.57;;;;;;;9.46;62.10;101883.75;5063734;28;20222;-80
2023/05/09 00:19:04;;;;;;;6.43;4.35;;;;;;;9.58;61.54;101885.13;5069679;28;20255;-78
2023/05/09 00:21:33;;;;;;;6.07;4.68;;;;;;;9.62;61.36;101886.44;5053507;28;20206;-79
2023/05/09 00:24:04;;;;;;;6.85;6.05;;;;;;;9.52;62.01;101885.78;5070295;28;20191;-79
2023/05/09 00:26:33;;;;;;;5.18;4.68;;;;;;;9.56;61.82;101884.44;5068154;28;20223;-78
2023/05/09 00:29:02;;;;;;;6.25;5.13;;;;;;;9.54;61.93;101878.34;5044175;28;20202;-79
2023/05/09 00:31:31;;;;;;;5.63;4.68;;;;;;;9.53;61.64;101887.50;5042256;28;20204;-79
2023/05/09 00:34:00;;;;;;;8.77;5.05;;;;;;;9.51;61.82;101889.50;5059963;28;20201;-78
2023/05/09 00:36:29;;;;;;;4.75;4.32;;;;;;;9.48;62.06;101884.44;5059227;28;20241;-80
2023/05/09 00:38:58;;;;;;;5.68;4.85;;;;;;;9.40;62.49;101888.00;5061527;28;20261;-78
2023/05/09 00:41:29;;;;;;;5.00;4.50;;;;;;;9.42;62.19;101893.22;5043162;28;20198;-80
2023/05/09 00:43:58;;;;;;;6.43;4.05;;;;;;;9.35;62.86;101884.94;5048979;28;20199;-80
2023/05/09 00:46:27;;;;;;;5.03;4.25;;;;;;;9.27;62.82;101889.53;5053626;28;20234;-78
2023/05/09 00:48:57;;;;;;;6.95;4.57;;;;;;;9.39;62.44;101885.47;5054871;28;20214;-78
2023/05/09 00:51:28;;;;;;;4.60;3.80;;;;;;;9.35;62.39;101884.94;5073278;28;20151;-78
2023/05/09 00:53:57;;;;;;;5.18;4.68;;;;;;;9.25;62.67;101883.44;5072188;28;20194;-78
2023/05/09 00:56:28;;;;;;;8.07;5.70;;;;;;;9.30;62.41;101875.66;5067726;28;20271;-79
2023/05/09 00:58:57;;;;;;;3.67;3.38;;;;;;;9.25;62.53;101872.63;5049429;28;20369;-80
2023/05/09 01:01:26;;;;;;;5.60;4.55;;;;;;;9.44;61.77;101870.41;5067929;28;20202;-79
2023/05/09 01:03:55;;;;;;;4.55;4.15;;;;;;;9.33;62.07;101870.78;5061562;28;20257;-81
2023/05/09 01:06:38;;;;;;;8.32;4.40;;;;;;;9.18;62.87;101858.13;5042564;28;20206;-79
2023/05/09 01:09:17;;;;;;;4.75;3.97;;;;;;;9.15;62.99;101860.16;5043592;28;20194;-80
2023/05/09 01:11:55;;;;;;;4.70;3.47;;;;;;;9.15;63.00;101860.16;5059165;28;20189;-79
2023/05/09 01:14:37;;;;;;;5.03;4.07;;;;;;;9.12;62.88;101855.09;5061645;28;20255;-79
2023/05/09 01:17:16;;;;;;;6.75;4.35;;;;;;;9.16;62.53;101853.75;5063090;28;20231;-79
2023/05/09 01:20:09;;;;;;;6.20;4.68;;;;;;;9.16;62.44;101859.13;5063904;28;20187;-80
2023/05/09 01:22:43;;;;;;;5.00;3.90;;;;;;;9.18;61.98;101853.56;5059953;28;20196;-81
2023/05/09 01:25:44;;;;;;;5.68;4.78;;;;;;;9.26;61.82;101855.41;5068579;28;20198;-77
2023/05/09 01:28:34;;;;;;;6.47;4.30;;;;;;;9.40;61.04;101852.03;5070506;28;20188;-79
2023/05/09 01:31:09;;;;;;;6.25;3.67;;;;;;;9.28;61.07;101850.69;5075383;28;20194;-79
2023/05/09 01:33:42;;;;;;;8.13;4.45;;;;;;;9.31;61.04;101850.34;5053851;28;20222;-79
2023/05/09 01:36:16;;;;;;;6.25;4.88;;;;;;;9.25;61.25;101851.03;5063502;28;20242;-79
2023/05/09 01:38:46;;;;;;;5.68;4.00;;;;;;;9.26;60.96;101847.31;5059946;28;20178;-79
2023/05/09 01:41:17;;;;;;;6.45;4.68;;;;;;;9.20;61.12;101842.63;5038644;28;20167;-81
2023/05/09 01:43:48;;;;;;;6.30;3.15;;;;;;;9.29;60.68;101842.44;5042055;28;20170;-80
2023/05/09 01:46:21;;;;;;;3.83;3.22;;;;;;;9.25;60.56;101838.38;5058348;28;20237;-80
2023/05/09 01:48:52;;;;;;;5.82;4.57;;;;;;;9.27;59.96;101838.19;5066497;28;20183;-78
2023/05/09 01:51:22;;;;;;;5.15;3.97;;;;;;;9.18;60.02;101836.53;5088096;28;20213;-79
2023/05/09 01:53:54;;;;;;;4.63;3.65;;;;;;;9.30;59.46;101844.09;5085721;28;20195;-79
2023/05/09 01:56:24;;;;;;;4.85;3.90;;;;;;;9.29;59.28;101836.19;5073630;28;20222;-79
2023/05/09 01:58:55;;;;;;;5.15;3.58;;;;;;;9.35;58.56;101840.88;5055384;28;20624;-79
2023/05/09 02:01:27;;;;;;;3.17;2.88;;;;;;;9.33;58.63;101841.06;5057989;28;20235;-80
2023/05/09 02:03:57;;;;;;;5.88;4.28;;;;;;;9.31;58.37;101844.94;5074982;28;20202;-78
2023/05/09 02:06:28;;;;;;;7.05;3.55;;;;;;;9.27;58.35;101835.50;5056078;28;20202;-78
2023/05/09 02:08:59;;;;;;;6.50;4.15;;;;;;;9.32;57.71;101841.25;5074023;28;20254;-79
2023/05/09 02:11:28;;;;;;;6.03;3.50;;;;;;;9.33;57.27;101832.13;5073784;28;20265;-80
2023/05/09 02:13:57;;;;;;;6.15;3.03;;;;;;;9.37;56.96;101838.88;5062481;28;20297;-79
2023/05/09 02:16:28;;;;;;;5.60;4.13;;;;;;;9.39;56.86;101842.25;5040251;28;20575;-78
2023/05/09 02:18:57;;;;;;;5.95;3.50;;;;;;;9.27;57.30;101833.66;5057875;28;20279;-79
2023/05/09 02:21:27;;;;;;;4.22;2.88;;;;;;;9.11;57.83;101847.16;5039543;28;20206;-79
2023/05/09 02:23:57;;;;;;;3.28;2.75;;;;;;;9.33;56.19;101840.22;5066437;28;20201;-81
2023/05/09 02:26:28;;;;;;;4.07;3.10;;;;;;;9.38;56.40;101841.41;5059044;28;20651;-80
2023/05/09 02:28:58;;;;;;;6.97;4.75;;;;;;;9.22;56.71;101832.47;5056468;28;20212;-80
2023/05/09 02:31:30;;;;;;;4.28;3.13;;;;;;;9.35;55.87;101835.47;5056348;28;20672;-79
2023/05/09 02:34:02;;;;;;;3.67;3.38;;;;;;;9.26;55.97;101840.06;5056120;28;20241;-80
2023/05/09 02:36:32;;;;;;;8.50;3.95;;;;;;;9.20;56.82;101848.03;5044247;28;20323;-79
2023/05/09 02:39:02;;;;;;;5.78;3.55;;;;;;;9.22;56.20;101841.41;5056301;28;20194;-79
2023/05/09 02:41:31;;;;;;;4.07;2.83;;;;;;;9.16;56.09;101847.50;5048084;28;20246;-80
2023/05/09 02:44:00;;;;;;;4.30;3.90;;;;;;;9.16;56.57;101842.94;5056831;28;20209;-79
2023/05/09 02:46:33;;;;;;;8.35;3.72;;;;;;;9.01;56.76;101839.22;5039811;28;20226;-78
2023/05/09 02:49:02;;;;;;;11.07;3.75;;;;;;;9.19;55.91;101843.63;5056909;28;20213;-80
2023/05/09 02:51:33;;;;;;;5.03;3.13;;;;;;;9.16;55.95;101837.53;5044136;28;20201;-80
2023/05/09 02:54:02;;;;;;;4.72;3.45;;;;;;;9.27;55.57;101844.44;5038891;28;20697;-79
2023/05/09 02:56:31;;;;;;;4.32;3.50;;;;;;;9.12;56.12;101833.50;5040106;28;20229;-79
2023/05/09 02:59:00;;;;;;;6.03;3.70;;;;;;;9.24;55.35;101838.56;5039744;28;20201;-79
2023/05/09 03:01:30;;;;;;;3.90;2.85;;;;;;;9.29;55.12;101842.44;5060199;28;20212;-80
2023/05/09 03:03:59;;;;;;;4.88;3.50;;;;;;;9.07;55.93;101833.16;5059259;28;20185;-78
2023/05/09 03:06:29;;;;;;;4.72;3.33;;;;;;;9.06;56.30;101839.56;5055683;28;20222;-79
2023/05/09 03:08:58;;;;;;;3.63;3.33;;;;;;;9.18;55.69;101834.69;5055780;28;20186;-81
2023/05/09 03:11:29;;;;;;;4.05;3.28;;;;;;;9.13;55.77;101829.78;5041843;28;20190;-78
2023/05/09 03:13:58;;;;;;;3.47;3.10;;;;;;;9.15;55.96;101829.59;5045415;28;20220;-79
2023/05/09 03:16:31;;;;;;;4.90;3.70;;;;;;;9.04;56.14;101833.50;5049109;28;20211;-79
2023/05/09 03:19:01;;;;;;;4.10;3.50;;;;;;;9.04;56.54;101822.72;5044096;28;20220;-79
2023/05/09 03:21:31;;;;;;;3.75;3.15;;;;;;;9.15;55.86;101825.03;5042267;28;20198;-78
2023/05/09 03:24:01;;;;;;;4.80;3.30;;;;;;;9.18;55.92;101829.28;5060791;28;20190;-79
2023/05/09 03:26:34;;;;;;;5.85;3.70;;;;;;;9.13;56.30;101827.09;5043098;28;20236;-80
2023/05/09 03:29:04;;;;;;;6.82;4.45;;;;;;;9.09;56.43;101831.16;5061202;28;20193;-79
2023/05/09 03:31:35;;;;;;;4.10;3.70;;;;;;;9.10;56.73;101810.38;5062138;28;20214;-81
2023/05/09 03:34:04;;;;;;;4.30;2.70;;;;;;;9.17;56.19;101816.78;5061263;28;20341;-80
2023/05/09 03:36:33;;;;;;;6.43;4.18;;;;;;;9.19;56.47;101827.41;5066429;28;20276;-80
2023/05/09 03:39:03;;;;;;;9.00;4.30;;;;;;;9.27;56.05;101816.59;5064592;28;20218;-79
2023/05/09 03:41:34;;;;;;;4.47;3.22;;;;;;;9.97;54.61;101820.28;5053173;28;20202;-78
2023/05/09 03:44:04;;;;;;;4.72;4.25;;;;;;;10.90;52.07;101810.22;5052277;28;20213;-80
2023/05/09 03:46:35;;;;;;;4.10;3.38;;;;;;;11.51;49.91;101809.13;5049169;28;20295;-80
2023/05/09 03:49:04;;;;;;;5.30;4.28;;;;;;;11.81;49.01;101822.72;5066958;28;20202;-79
2023/05/09 03:51:35;;;;;;;4.70;3.28;;;;;;;12.37;48.03;101813.00;5053785;28;20191;-78
2023/05/09 03:54:08;;;;;;;4.63;3.40;;;;;;;12.81;46.36;101815.53;5065552;28;20570;-79
2023/05/09 03:56:37;;;;;;;4.23;3.17;;;;;;;13.08;45.49;101806.59;5057310;28;20865;-79
2023/05/09 03:59:06;;;;;;;3.73;3.23;;;;;;;13.63;44.58;101804.91;5046950;28;20416;-80
2023/05/09 04:01:38;;;;;;;4.80;3.43;;;;;;;13.40;44.59;101806.03;5045046;28;20432;-79
2023/05/09 04:04:09;;;;;;;5.60;3.90;;;;;;;13.48;44.23;101814.03;5044762;28;20450;-78
2023/05/09 04:06:38;;;;;;;4.03;3.03;;;;;;;13.72;43.89;101803.72;5047210;28;20441;-79
2023/05/09 04:09:10;;;;;;;4.97;4.10;;;;;;;13.83;43.39;101805.88;5044322;28;20450;-80
2023/05/09 04:11:42;;;;;;;3.90;3.40;;;;;;;14.36;42.38;101806.97;5044790;28;20472;-79
2023/05/09 04:14:13;;;;;;;4.57;4.10;;;;;;;15.41;40.94;101801.59;5044758;28;20423;-79
2023/05/09 04:16:44;;;;;;;4.43;3.13;;;;;;;15.73;40.13;101799.88;5062442;28;21019;-79
2023/05/09 04:19:13;;;;;;;5.60;4.70;;;;;;;15.85;39.70;101803.63;5043742;28;20418;-79
2023/05/09 04:21:42;;;;;;;6.30;3.40;;;;;;;16.07;39.56;101801.44;5053483;28;20442;-80
2023/05/09 04:24:12;;;;;;;7.43;5.07;;;;;;;15.40;40.17;101799.06;5043297;28;20439;-80
2023/05/09 04:26:47;;;;;;;6.83;3.97;;;;;;;14.63;41.84;101796.94;5042488;28;20452;-79
2023/05/09 04:29:25;;;;;;;9.03;4.47;;;;;;;14.50;41.86;101807.84;5089409;23;20464;-79
2023/05/09 04:31:58;;;;;;;6.33;4.20;;;;;;;14.13;42.97;101807.28;5038086;28;20443;-78
2023/05/09 04:34:30;;;;;;;9.60;4.10;;;;;;;14.86;41.53;101813.78;5039586;28;20455;-78
2023/05/09 04:37:04;;;;;;;6.00;4.60;;;;;;;15.06;41.25;101814.59;5036399;28;20405;-78
2023/05/09 04:39:34;;;;;;;8.83;4.70;;;;;;;15.36;40.51;101803.25;5054002;28;20430;-78
2023/05/09 04:42:12;;;;;;;5.60;4.20;;;;;;;15.61;40.01;101798.84;5038225;28;20432;-78
2023/05/09 04:44:41;;;;;;;7.70;4.47;;;;;;;14.87;41.32;101806.41;5056499;28;20431;-78
2023/05/09 04:47:12;;;;;;;5.40;4.47;;;;;;;15.42;40.64;101807.88;5030387;28;20531;-78
2023/05/09 04:49:41;;;;;;;4.43;4.03;;;;;;;15.59;40.46;101809.13;5041442;28;20429;-77
2023/05/09 04:52:10;;;;;;;6.63;4.10;;;;;;;15.51;40.21;101801.19;5028934;28;20950;-79
2023/05/09 04:54:39;;;;;;;4.43;3.90;;;;;;;15.84;39.94;101809.28;5037299;28;20448;-78
2023/05/09 04:57:09;;;;;;;8.43;4.23;;;;;;;16.83;38.35;101807.75;5040658;28;20443;-78
2023/05/09 04:59:51;;;;;;;5.43;3.60;;;;;;;16.35;38.83;101801.09;5039244;28;20466;-77
2023/05/09 05:02:23;;;;;;;4.40;3.60;;;;;;;16.08;39.18;101794.91;5043046;28;20443;-77
2023/05/09 05:04:53;;;;;;;11.30;4.60;;;;;;;15.84;39.79;101799.19;5039726;28;20421;-77
2023/05/09 05:07:40;;;;;;;4.70;4.10;;;;;;;16.20;38.94;101792.34;5039189;28;20590;-78
2023/05/09 05:10:12;;;;;;;5.30;3.70;;;;;;;16.98;38.27;101793.78;5040391;28;20502;-78
2023/05/09 05:12:44;;;;;;;6.53;4.00;;;;;;;17.89;36.54;101801.31;5050696;28;20422;-78
2023/05/09 05:15:15;;;;;;;7.70;4.90;;;;;;;17.71;36.32;101796.69;5041195;28;20774;-78
2023/05/09 05:17:48;;;;;;;4.40;4.00;;;;;;;18.10;35.84;101801.69;5037346;28;20499;-78
2023/05/09 05:20:21;;;;;;;5.63;4.07;;;;;;;17.68;36.59;101797.97;5038635;28;20467;-78
2023/05/09 05:22:53;;;;;;;6.00;4.13;;;;;;;14.26;42.34;101790.13;5039854;28;20406;-76
2023/05/09 05:25:23;;;;;;;7.70;5.23;;;;;;;13.15;44.99;101795.81;5034831;28;20429;-77
2023/05/09 05:27:53;;;;;;;7.70;4.20;;;;;;;12.05;47.10;101785.25;5033538;28;20962;-78
2023/05/09 05:30:22;;;;;;;6.60;4.57;;;;;;;11.90;48.58;101789.06;5042195;28;20420;-78
2023/05/09 05:32:53;;;;;;;5.80;3.90;;;;;;;11.78;49.29;101788.69;5046677;28;20416;-78
2023/05/09 05:35:23;;;;;;;5.90;4.50;;;;;;;11.73;49.66;101783.81;5043730;28;20457;-78
2023/05/09 05:37:53;;;;;;;6.63;3.90;;;;;;;11.68;49.69;101786.22;5062139;28;20425;-79
2023/05/09 05:40:23;;;;;;;7.20;4.20;;;;;;;11.60;49.94;101780.91;5021885;28;20464;-78
2023/05/09 05:42:54;;;;;;;4.60;4.10;;;;;;;11.48;50.02;101786.97;4999948;28;20472;-79
2023/05/09 05:45:24;;;;;;;4.53;4.13;;;;;;;11.48;49.96;101782.38;4997054;28;21007;-78
2023/05/09 05:47:57;;;;;;;5.53;4.10;;;;;;;11.48;49.86;101771.53;5014096;28;20447;-77
2023/05/09 05:50:26;;;;;;;4.87;3.57;;;;;;;11.64;50.00;101768.66;4995083;28;20948;-77
2023/05/09 05:52:56;;;;;;;9.93;4.57;;;;;;;11.59;49.50;101771.09;4986782;28;20427;-78
2023/05/09 05:55:25;;;;;;;5.27;3.60;;;;;;;11.62;49.26;101764.44;4978938;28;20450;-78
2023/05/09 05:57:54;;;;;;;5.87;3.57;;;;;;;11.51;49.27;101763.06;4981638;28;20857;-77
2023/05/09 06:00:23;;;;;;;5.20;3.80;;;;;;;11.69;49.35;101759.94;4975432;28;20504;-77
2023/05/09 06:03:01;;;;;;;4.73;4.07;;;;;;;11.74;48.89;101752.97;4970783;28;20941;-79
2023/05/09 06:05:43;;;;;;;3.73;3.40;;;;;;;11.80;48.63;101754.09;5010600;28;20487;-79
2023/05/09 06:08:13;;;;;;;4.00;3.40;;;;;;;11.97;48.88;101744.69;4992223;28;20452;-78
2023/05/09 06:10:42;;;;;;;4.33;3.93;;;;;;;12.16;48.03;101751.38;4999966;28;20526;-78
2023/05/09 06:13:12;;;;;;;9.00;3.43;;;;;;;12.20;47.25;101741.81;5005855;28;20449;-78
2023/05/09 06:15:45;;;;;;;3.43;3.13;;;;;;;12.31;47.59;101741.31;4994877;28;20451;-78
2023/05/09 06:18:15;;;;;;;8.00;3.83;;;;;;;12.45;47.03;101740.41;4999456;28;20441;-78
2023/05/09 06:20:44;;;;;;;5.50;3.73;;;;;;;12.29;47.08;101747.97;4983684;28;20451;-80
2023/05/09 06:23:13;;;;;;;6.70;3.80;;;;;;;12.48;46.63;101733.75;4979217;28;20423;-78
2023/05/09 06:25:42;;;;;;;5.40;3.03;;;;;;;12.55;46.35;101727.34;4984393;28;20434;-78
2023/05/09 06:28:11;;;;;;;5.50;3.50;;;;;;;12.82;46.83;101731.16;4970419;28;20439;-79
2023/05/09 06:30:40;;;;;;;6.97;3.70;;;;;;;12.77;46.13;101721.91;4973689;28;20418;-79
2023/05/09 06:33:09;;;;;;;6.53;4.27;;;;;;;12.81;46.21;101721.31;4972697;28;20640;-79
2023/05/09 06:35:40;;;;;;;3.90;3.50;;;;;;;12.82;46.19;101724.88;4980387;28;20444;-79
2023/05/09 06:38:09;;;;;;;5.80;3.73;;;;;;;12.67;46.27;101722.25;4971740;28;20523;-79
2023/05/09 06:40:38;;;;;;;3.97;3.57;;;;;;;12.66;46.30;101714.28;4981030;28;20702;-79
2023/05/09 06:43:07;;;;;;;4.20;3.80;;;;;;;12.85;46.09;101702.75;4989398;28;20521;-78
2023/05/09 06:45:36;;;;;;;7.17;3.30;;;;;;;12.98;46.44;101700.09;4975853;28;20922;-78
2023/05/09 06:48:06;;;;;;;7.53;4.13;;;;;;;13.07;46.20;101693.47;4973802;28;20419;-78
2023/05/09 06:50:35;;;;;;;7.57;4.10;;;;;;;13.11;46.03;101697.53;4967415;28;20493;-78
2023/05/09 06:53:06;;;;;;;5.03;3.80;;;;;;;13.02;46.38;101698.69;4979635;28;20462;-78
2023/05/09 06:55:35;;;;;;;6.80;3.70;;;;;;;13.17;46.33;101701.34;4975662;28;20448;-78
2023/05/09 06:58:04;;;;;;;5.87;4.70;;;;;;;13.13;45.65;101700.03;4968468;28;20413;-78
2023/05/09 07:00:33;;;;;;;7.07;4.83;;;;;;;13.30;45.37;101699.53;4973096;28;20428;-78
2023/05/09 07:03:02;;;;;;;4.93;4.53;;;;;;;13.11;45.42;101689.38;4970215;28;20435;-78
2023/05/09 07:05:31;;;;;;;5.80;3.90;;;;;;;12.99;45.70;101680.91;4973617;28;20401;-78
2023/05/09 07:08:00;;;;;;;5.47;3.73;;;;;;;13.21;45.56;101673.56;4976403;28;20488;-77
2023/05/09 07:10:31;;;;;;;5.40;3.70;;;;;;;13.09;45.31;101675.09;4971295;28;20444;-79
2023/05/09 07:13:00;;;;;;;5.17;4.17;;;;;;;13.30;45.56;101674.22;4971402;28;20773;-78
2023/05/09 07:15:29;;;;;;;5.17;4.03;;;;;;;13.39;45.15;101673.84;4981581;28;20404;-79
2023/05/09 07:18:09;;;;;;;8.60;4.27;;;;;;;13.32;45.46;101667.53;4976727;28;20433;-78
2023/05/09 07:20:38;;;;;;;6.53;4.13;;;;;;;13.33;45.57;101657.50;4979546;28;20463;-79
2023/05/09 07:23:07;;;;;;;5.87;3.80;;;;;;;13.36;45.27;101655.22;4993482;28;20472;-79
2023/05/09 07:25:38;;;;;;;4.33;3.40;;;;;;;13.54;44.55;101660.13;4989607;28;20405;-78
2023/05/09 07:28:07;;;;;;;5.90;4.27;;;;;;;13.69;44.01;101646.38;4991356;28;20410;-78
2023/05/09 07:30:36;;;;;;;5.00;4.47;;;;;;;13.74;43.58;101643.88;4994146;28;20436;-79
2023/05/09 07:33:05;;;;;;;4.00;3.60;;;;;;;14.00;42.89;101638.47;4994694;28;20520;-79
2023/05/09 07:35:34;;;;;;;4.13;3.50;;;;;;;13.83;43.09;101648.91;4969133;28;20838;-78
2023/05/09 07:38:05;;;;;;;5.97;3.80;;;;;;;13.86;42.48;101647.66;4975388;28;20466;-78
2023/05/09 07:40:35;;;;;;;6.43;4.40;;;;;;;13.97;41.94;101644.34;4973740;28;20488;-77
2023/05/09 07:43:05;;;;;;;5.93;3.80;;;;;;;13.86;42.44;101634.88;4981909;28;20811;-78
2023/05/09 07:45:35;;;;;;;3.80;3.47;;;;;;;14.17;42.11;101625.31;4985425;28;20438;-78
2023/05/09 07:48:04;;;;;;;4.67;3.53;;;;;;;14.21;42.06;101629.28;4984398;28;20485;-78
2023/05/09 07:50:34;;;;;;;4.10;3.37;;;;;;;14.49;41.77;101615.50;4982395;28;20451;-78
2023/05/09 07:53:03;;;;;;;5.20;3.50;;;;;;;14.80;40.88;101626.59;4981212;28;20439;-78
2023/05/09 07:55:32;;;;;;;4.63;3.77;;;;;;;14.73;40.96;101618.41;4977711;28;20413;-80
2023/05/09 07:58:01;;;;;;;4.63;4.23;;;;;;;14.74;40.66;101613.81;4976947;28;20825;-78
2023/05/09 08:00:31;;;;;;;8.03;2.97;;;;;;;14.53;40.96;101611.31;4974084;28;20454;-78
2023/05/09 08:03:00;;;;;;;5.13;4.27;;;;;;;14.59;40.16;101616.75;4973144;28;20449;-79
2023/05/09 08:05:30;;;;;;;5.80;4.17;;;;;;;14.70;40.11;101612.56;4976552;28;20418;-78
2023/05/09 08:07:59;;;;;;;10.13;3.67;;;;;;;14.77;40.05;101602.47;4978770;28;20416;-79
2023/05/09 08:10:29;;;;;;;3.50;3.20;;;;;;;14.91;39.74;101598.66;4985402;28;20444;-79
2023/05/09 08:12:58;;;;;;;6.00;3.20;;;;;;;15.29;39.29;101606.13;4999361;28;20417;-79
2023/05/09 08:15:27;;;;;;;3.43;2.73;;;;;;;15.10;38.77;101605.94;5001933;28;20437;-80
2023/05/09 08:17:58;;;;;;;4.10;3.70;;;;;;;14.96;39.14;101600.78;4998422;28;20430;-79
2023/05/09 08:20:27;;;;;;;5.17;2.83;;;;;;;15.04;39.32;101595.91;4997816;28;20461;-77
2023/05/09 08:22:56;;;;;;;5.40;4.57;;;;;;;15.02;39.40;101595.28;4999213;28;20420;-78
2023/05/09 08:25:25;;;;;;;5.67;4.50;;;;;;;15.10;39.62;101596.97;5000290;28;20429;-78
2023/05/09 08:27:57;;;;;;;5.60;3.20;;;;;;;15.24;38.96;101590.41;4986392;28;20474;-79
2023/05/09 08:30:29;;;;;;;4.90;3.57;;;;;;;15.23;38.47;101586.00;4990457;28;20427;-77
2023/05/09 08:33:00;;;;;;;5.37;3.20;;;;;;;15.34;38.63;101581.75;4992246;28;20402;-79
2023/05/09 08:35:29;;;;;;;8.30;4.20;;;;;;;15.46;37.77;101582.72;4986584;28;20432;-78
2023/05/09 08:37:58;;;;;;;5.07;3.33;;;;;;;15.76;37.17;101585.75;4968760;28;20492;-79
2023/05/09 08:40:27;;;;;;;4.50;3.80;;;;;;;15.51;37.05;101591.13;4977442;28;20805;-78
2023/05/09 08:42:57;;;;;;;4.40;3.60;;;;;;;15.78;37.26;101587.19;4976180;28;20432;-79
2023/05/09 08:45:29;;;;;;;6.07;3.90;;;;;;;15.94;36.92;101581.22;4973957;28;20411;-78
2023/05/09 08:47:59;;;;;;;9.13;3.90;;;;;;;15.85;36.37;101596.19;5001049;28;20528;-78
2023/05/09 08:50:29;;;;;;;14.70;4.07;;;;;;;15.87;37.00;101579.59;4980200;28;20711;-78
2023/05/09 08:52:59;;;;;;;4.40;4.00;;;;;;;15.91;36.87;101578.94;4969178;28;20410;-78
2023/05/09 08:55:30;;;;;;;4.90;3.87;;;;;;;16.17;36.73;101577.88;4972840;28;20463;-79
2023/05/09 08:58:11;;;;;;;4.57;3.50;;;;;;;16.22;36.60;101575.31;4985520;28;20481;-79
2023/05/09 09:01:16;;;;;;;7.10;4.10;;;;;;;16.53;36.34;101560.75;4972598;28;20475;-79
2023/05/09 09:04:22;;;;;;;5.20;3.47;;;;;;;16.69;36.29;101571.16;4971606;28;20460;-78
2023/05/09 09:07:00;;;;;;;5.80;4.70;;;;;;;16.92;36.80;101579.50;4972157;28;20472;-79
2023/05/09 09:09:41;;;;;;;6.47;4.00;;;;;;;16.48;36.55;101569.63;4975513;28;20567;-78
2023/05/09 09:12:11;;;;;;;4.13;3.17;;;;;;;16.39;36.82;101554.59;4977823;28;20433;-78
2023/05/09 09:14:46;;;;;;;4.20;3.80;;;;;;;16.36;36.24;101555.03;4974157;28;20931;-78
2023/05/09 09:17:19;;;;;;;7.60;4.53;;;;;;;16.19;36.72;101564.84;4975201;28;20434;-79
2023/05/09 09:19:54;;;;;;;5.70;4.20;;;;;;;16.28;36.79;101551.75;4986550;28;20469;-78
2023/05/09 09:22:23;;;;;;;4.70;3.50;;;;;;;16.68;36.14;101547.59;4979480;28;20668;-77
2023/05/09 09:24:52;;;;;;;7.20;4.00;;;;;;;16.83;36.90;101550.81;4978717;28;20444;-78
2023/05/09 09:27:21;;;;;;;6.13;4.27;;;;;;;16.85;36.41;101542.34;4976113;28;20456;-80
2023/05/09 09:29:50;;;;;;;9.97;4.10;;;;;;;16.96;36.27;101544.34;4977212;28;20439;-79
2023/05/09 09:32:21;;;;;;;4.40;4.00;;;;;;;16.99;35.57;101532.13;4988744;28;20415;-79
2023/05/09 09:35:05;;;;;;;7.10;3.97;;;;;;;16.84;35.92;101547.00;4988156;28;20421;-79
2023/05/09 09:37:35;;;;;;;4.67;4.17;;;;;;;16.84;35.70;101536.06;4978176;28;20503;-79
2023/05/09 09:40:08;;;;;;;5.50;4.07;;;;;;;17.05;35.14;101531.19;4983108;28;20455;-78
2023/05/09 09:42:45;;;;;;;4.20;3.80;;;;;;;16.73;35.18;101530.53;4975506;28;20416;-78
2023/05/09 09:45:15;;;;;;;3.20;3.00;;;;;;;16.77;35.46;101513.44;4970369;28;20423;-78
2023/05/09 09:47:47;;;;;;;5.60;3.97;;;;;;;16.75;35.11;101515.56;4969302;28;20401;-79
2023/05/09 09:50:21;;;;;;;3.37;3.03;;;;;;;16.85;35.31;101513.13;4978200;28;20439;-79
2023/05/09 09:52:52;;;;;;;5.73;3.73;;;;;;;17.06;35.52;101502.78;4973724;28;20451;-79
2023/05/09 09:55:22;;;;;;;7.20;3.90;;;;;;;17.42;34.83;101499.97;4974384;28;21005;-79
2023/05/09 09:57:52;;;;;;;4.70;4.13;;;;;;;17.51;34.57;101503.22;4979123;28;21026;-78
2023/05/09 10:00:29;;;;;;;5.83;3.80;;;;;;;17.53;34.47;101501.06;4976870;28;20416;-79
2023/05/09 10:02:59;;;;;;;7.33;3.77;;;;;;;17.56;34.66;101495.97;4991219;28;20416;-77
2023/05/09 10:05:33;;;;;;;5.73;3.50;;;;;;;17.42;34.35;101499.97;4975850;28;20920;-79
2023/05/09 10:08:06;;;;;;;9.90;3.43;;;;;;;17.28;33.92;101493.03;4977498;28;20408;-79
2023/05/09 10:10:37;;;;;;;4.97;3.67;;;;;;;17.62;34.54;101488.78;4976182;28;20504;-79
2023/05/09 10:13:10;;;;;;;7.50;3.03;;;;;;;17.85;33.60;101485.22;4977525;28;20864;-78
2023/05/09 10:15:41;;;;;;;4.03;3.20;;;;;;;17.61;33.69;101482.47;4993900;28;20440;-79
2023/05/09 10:18:28;;;;;;;3.63;3.13;;;;;;;17.52;34.33;101474.78;4981349;28;20507;-79
2023/05/09 10:21:02;;;;;;;8.43;4.40;;;;;;;17.55;34.13;101474.31;4984840;28;20539;-79
2023/05/09 10:23:34;;;;;;;8.00;3.00;;;;;;;17.45;33.39;101466.66;4983287;28;20452;-79
2023/05/09 10:26:12;;;;;;;3.50;3.20;;;;;;;17.63;33.65;101463.88;4991564;28;20413;-78
2023/05/09 10:28:45;;;;;;;4.10;3.03;;;;;;;17.78;33.40;101464.28;4984633;28;20470;-78
2023/05/09 10:31:21;;;;;;;6.20;4.43;;;;;;;17.98;33.67;101457.63;4991909;28;20437;-78
2023/05/09 10:33:51;;;;;;;3.23;2.93;;;;;;;17.70;33.66;101463.78;4986720;28;20440;-78
2023/05/09 10:36:23;;;;;;;7.17;3.37;;;;;;;17.57;32.88;101453.84;5005908;28;20815;-77
2023/05/09 10:38:55;;;;;;;9.93;4.20;;;;;;;17.69;32.65;101459.38;5000595;28;20459;-78
2023/05/09 10:41:24;;;;;;;6.90;4.40;;;;;;;17.80;32.21;101442.97;4989484;28;20455;-78
2023/05/09 10:43:55;;;;;;;4.47;3.10;;;;;;;17.97;32.29;101450.47;4987076;28;20541;-79
2023/05/09 10:46:26;;;;;;;8.83;4.20;;;;;;;18.07;32.30;101442.50;4987481;28;20455;-78
2023/05/09 10:48:57;;;;;;;3.73;3.20;;;;;;;18.37;31.92;101445.94;4987742;28;20442;-78
2023/05/09 10:51:28;;;;;;;6.73;2.70;;;;;;;18.44;31.08;101446.66;4983491;28;20424;-78
2023/05/09 10:53:57;;;;;;;4.67;2.93;;;;;;;18.66;31.25;101434.00;4972859;28;20409;-79
2023/05/09 10:56:30;;;;;;;3.47;3.10;;;;;;;18.90;31.23;101425.69;4974102;28;20436;-78
2023/05/09 10:59:00;;;;;;;3.17;2.87;;;;;;;18.96;31.41;101432.94;4970604;28;20556;-78
2023/05/09 11:01:31;;;;;;;5.30;3.57;;;;;;;18.93;31.02;101430.69;4973517;28;20490;-79
2023/05/09 11:04:01;;;;;;;11.20;4.27;;;;;;;18.96;30.64;101409.09;4974210;28;20932;-78
2023/05/09 11:06:51;;;;;;;3.17;2.87;;;;;;;18.99;30.64;101418.72;4983469;28;20433;-78
2023/05/09 11:09:37;;;;;;;4.90;3.87;;;;;;;18.84;30.85;101421.16;4971034;28;20462;-79
2023/05/09 11:12:11;;;;;;;4.27;3.60;;;;;;;18.79;31.33;101413.69;4971532;28;20429;-80
2023/05/09 11:14:43;;;;;;;5.20;3.53;;;;;;;18.65;31.57;101396.69;4980590;28;20439;-79
2023/05/09 11:17:14;;;;;;;4.23;3.10;;;;;;;19.01;31.39;101405.63;4981516;28;20405;-79
2023/05/09 11:20:04;;;;;;;6.50;4.07;;;;;;;19.15;31.26;101401.50;4979330;28;20470;-80
2023/05/09 11:22:42;;;;;;;4.03;3.00;;;;;;;19.33;29.52;101395.78;4973012;28;20462;-78
2023/05/09 11:25:13;;;;;;;3.90;3.30;;;;;;;19.62;30.27;101390.25;4994174;28;20966;-78
2023/05/09 11:27:45;;;;;;;6.63;3.80;;;;;;;19.70;30.00;101376.94;4990019;28;20490;-78
2023/05/09 11:30:16;;;;;;;6.10;3.77;;;;;;;19.64;30.13;101377.09;4991122;28;20454;-79
2023/05/09 11:32:47;;;;;;;5.20;4.10;;;;;;;19.22;31.09;101374.72;4971919;28;20397;-78
2023/05/09 11:35:19;;;;;;;7.40;4.10;;;;;;;19.52;31.66;101364.28;4975574;28;20434;-79
2023/05/09 11:37:53;;;;;;;7.70;4.43;;;;;;;19.55;30.60;101367.63;4975231;28;20437;-79
2023/05/09 11:40:23;;;;;;;3.33;3.03;;;;;;;18.92;30.37;101346.75;4973457;28;20473;-77
2023/05/09 11:42:54;;;;;;;6.70;3.07;;;;;;;18.93;30.40;101353.88;4977634;28;20779;-78
2023/05/09 11:45:29;;;;;;;5.60;3.13;;;;;;;18.97;30.56;101357.81;4976101;28;20421;-79
2023/05/09 11:47:59;;;;;;;4.97;3.00;;;;;;;19.08;30.39;101357.75;4979592;28;20485;-79